Airfield :







YOU CAN JOIN US ON...

 
LOGIN :

Register | Disclaimer

   EN    FR    IT 

 









Legend :    VFR   Marginal VFR   IFR   Intensive IFR   Very Intensive IFR
Visi :
Ceiling :
>= 8 km
>= 3000ft
5 to 8 km
1000 to 3000 ft
1500m to 5 km
500 to 1000 ft
800 to 1500m
200 to 500 ft
< 800m
< 200 ft
Symbols :   Thunderstorms  Fog  Heavy snow  Heavy precipitations  Wind > 20 kt






- Airport Elevation : 496 ft
- IATA code : YQX


CYQX - Gander

CURRENT METAR :
  • 220100Z 27011G16KT 20SM FEW016 FEW250 M14/M19 A3029 RMK SC1CI1 SLP272

EXPIRED METARs :
  • 220000Z 28012KT 20SM FEW020 FEW250 M14/M19 A3025 RMK SC1CI1 SLP260
  • 212300Z 28010KT 20SM FEW020 SCT250 M14/M19 A3023 RMK SC2CI1 SLP252

TAF TAF CYQX
Valid from the 22 at 00:00 until the 23 at 00:00 UTC


212338Z 2200/2224 26008KT P6SM FEW030
BECMG 2204/2206 22005KT
FM221800 18005KT P6SM SCT220
FM222200 16005KT P6SM FEW120 SCT220
BECMG 2222/2224 22005KT RMK NXT FCST BY 220600Z



MET'MAP, your aeronautical weather chart ! - Copyright ORBIFLY December 2007 - Disclaimer

ORBIFLY MET'MAP TEAM :

Programming & Development : Alexandra Zaïnal
Concept & original design : Baudouin d'Aumeries
Assistance for programming : Marc-Olivier Méhu
Technical & hardware support : Manuel Goepfert

Contact : metmap@orbifly.com




SOURCES & CREDITS :

   NOAA